Time;durP1;ratioP1;P1;durP2;ratioP2;P2;SDS_P1;SDS_P2;PMS_P1;PMS_P2;Temp;Humidity;BMP_temperature;BMP_pressure;BME280_temperature;BME280_humidity;BME280_pressure;Samples;Min_cycle;Max_cycle;Signal;HPM_P1;HPM_P2
2023/08/08 00:00:05;;;;;;;10.10;3.00;;;13.40;92.00;;;;;;5054207;28;20036;-55
2023/08/08 00:02:32;;;;;;;5.88;2.25;;;13.40;92.20;;;;;;5037437;28;20032;-48
2023/08/08 00:04:57;;;;;;;16.63;3.33;;;13.30;92.00;;;;;;5072564;28;20024;-55
2023/08/08 00:07:29;;;;;;;15.57;2.83;;;13.20;91.70;;;;;;5071387;28;20035;-48
2023/08/08 00:09:57;;;;;;;13.77;2.85;;;13.00;91.60;;;;;;5072581;28;20210;-48
2023/08/08 00:12:24;;;;;;;16.85;2.47;;;12.90;91.60;;;;;;5071677;28;20449;-47
2023/08/08 00:14:53;;;;;;;11.25;2.90;;;12.90;91.80;;;;;;5072899;28;20051;-48
2023/08/08 00:17:20;;;;;;;10.77;2.08;;;12.90;91.90;;;;;;5053524;28;20453;-47
2023/08/08 00:19:47;;;;;;;15.05;3.83;;;12.80;92.10;;;;;;5072513;28;20111;-46
2023/08/08 00:22:14;;;;;;;9.75;2.17;;;12.90;92.20;;;;;;5072205;28;20044;-46
2023/08/08 00:24:40;;;;;;;9.60;2.47;;;12.90;92.10;;;;;;5072108;28;20029;-46
2023/08/08 00:27:07;;;;;;;11.13;2.55;;;12.90;92.00;;;;;;5038878;28;20040;-47
2023/08/08 00:29:32;;;;;;;10.00;2.25;;;12.90;92.00;;;;;;5072286;28;20380;-46
2023/08/08 00:32:03;;;;;;;6.82;1.70;;;13.00;92.00;;;;;;5072750;28;20029;-47
2023/08/08 00:34:30;;;;;;;8.70;1.90;;;13.00;91.90;;;;;;5071076;28;20357;-48
2023/08/08 00:36:57;;;;;;;9.48;3.83;;;13.00;92.00;;;;;;5072967;28;20128;-46
2023/08/08 00:39:24;;;;;;;7.10;1.80;;;13.00;92.10;;;;;;5070320;28;20642;-47
2023/08/08 00:41:50;;;;;;;10.27;2.30;;;13.10;92.20;;;;;;5072049;28;20029;-46
2023/08/08 00:44:17;;;;;;;8.82;3.17;;;13.10;92.30;;;;;;5073285;28;20033;-47
2023/08/08 00:46:44;;;;;;;10.77;3.05;;;13.10;92.20;;;;;;5061035;28;20533;-47
2023/08/08 00:49:13;;;;;;;5.82;2.08;;;13.10;92.20;;;;;;5034838;28;20028;-47
2023/08/08 00:51:42;;;;;;;11.43;2.15;;;13.10;92.30;;;;;;5063227;28;20032;-47
2023/08/08 00:54:10;;;;;;;5.07;2.00;;;13.20;92.20;;;;;;5071608;28;20101;-47
2023/08/08 00:56:39;;;;;;;6.10;2.03;;;13.10;92.20;;;;;;5073138;28;20021;-48
2023/08/08 00:59:08;;;;;;;7.25;1.60;;;13.10;92.20;;;;;;5073009;28;20029;-46
2023/08/08 01:01:35;;;;;;;5.85;1.23;;;13.10;91.90;;;;;;5053125;28;20497;-47
2023/08/08 01:04:06;;;;;;;4.72;1.60;;;13.00;91.70;;;;;;5072543;28;20029;-47
2023/08/08 01:06:41;;;;;;;9.98;1.92;;;12.90;91.40;;;;;;5072799;28;20020;-47
2023/08/08 01:09:25;;;;;;;3.95;1.42;;;12.90;91.40;;;;;;5070665;28;20311;-46
2023/08/08 01:11:53;;;;;;;4.38;1.20;;;12.80;91.30;;;;;;5038339;28;20037;-46
2023/08/08 01:14:24;;;;;;;7.28;1.80;;;12.80;91.20;;;;;;5072729;28;20353;-47
2023/08/08 01:16:57;;;;;;;6.47;1.35;;;12.80;91.10;;;;;;5069818;28;20028;-47
2023/08/08 01:19:34;;;;;;;7.00;1.65;;;12.90;91.00;;;;;;5072071;28;20090;-46
2023/08/08 01:22:20;;;;;;;7.32;1.48;;;12.80;91.00;;;;;;5072183;28;20017;-47
2023/08/08 01:24:47;;;;;;;8.57;1.80;;;12.80;91.20;;;;;;5060974;28;20334;-46
2023/08/08 01:27:14;;;;;;;7.40;1.70;;;12.90;91.00;;;;;;5067721;28;20116;-46
2023/08/08 01:29:41;;;;;;;6.00;1.58;;;12.90;90.80;;;;;;5072137;28;20032;-47
2023/08/08 01:32:10;;;;;;;4.40;1.20;;;12.90;90.50;;;;;;5068715;28;20044;-46
2023/08/08 01:34:38;;;;;;;8.90;1.75;;;12.80;90.80;;;;;;5052070;28;20036;-48
2023/08/08 01:37:19;;;;;;;6.60;1.70;;;12.90;90.70;;;;;;5055573;28;20211;-46
2023/08/08 01:39:48;;;;;;;6.72;1.55;;;12.90;90.60;;;;;;5046561;28;20039;-48
2023/08/08 01:42:18;;;;;;;3.08;1.15;;;12.80;90.60;;;;;;5048674;28;20101;-48
2023/08/08 01:44:45;;;;;;;9.13;1.77;;;12.80;90.70;;;;;;5064720;28;20052;-46
2023/08/08 01:47:11;;;;;;;6.13;1.88;;;12.80;90.70;;;;;;5069699;28;20024;-47
2023/08/08 01:49:38;;;;;;;6.28;1.38;;;12.70;90.80;;;;;;5071461;28;20024;-47
2023/08/08 01:52:07;;;;;;;5.97;1.77;;;12.80;91.00;;;;;;5068479;28;20028;-47
2023/08/08 01:54:33;;;;;;;4.95;1.30;;;12.70;90.80;;;;;;5057281;28;20729;-47
2023/08/08 01:57:06;;;;;;;5.05;1.00;;;12.70;90.80;;;;;;5066213;28;20041;-47
2023/08/08 01:59:32;;;;;;;4.28;1.15;;;12.70;90.70;;;;;;5071090;28;20465;-47
2023/08/08 02:01:59;;;;;;;5.10;1.25;;;12.70;90.50;;;;;;5056625;28;20083;-47
2023/08/08 02:04:28;;;;;;;5.13;1.60;;;12.70;90.60;;;;;;5067220;28;20076;-47
2023/08/08 02:06:57;;;;;;;9.02;2.25;;;12.70;90.30;;;;;;5071216;28;20082;-47
2023/08/08 02:09:24;;;;;;;5.38;1.30;;;12.70;90.40;;;;;;5043525;28;20034;-48
2023/08/08 02:11:50;;;;;;;3.33;1.02;;;12.70;90.50;;;;;;5070817;28;20031;-46
2023/08/08 02:14:21;;;;;;;7.75;1.77;;;12.70;90.50;;;;;;5070868;28;20024;-47
2023/08/08 02:16:46;;;;;;;7.78;1.67;;;12.80;90.70;;;;;;5040635;28;20041;-47
2023/08/08 02:19:14;;;;;;;9.27;1.67;;;12.80;90.70;;;;;;5051995;28;20025;-46
2023/08/08 02:21:43;;;;;;;10.18;1.67;;;12.80;90.80;;;;;;5062660;28;20024;-47
2023/08/08 02:24:11;;;;;;;9.43;2.53;;;12.90;91.00;;;;;;5068306;28;20032;-46
2023/08/08 02:26:38;;;;;;;10.73;1.88;;;12.90;91.00;;;;;;5071949;28;20020;-46
2023/08/08 02:29:05;;;;;;;5.32;1.58;;;13.00;91.00;;;;;;5063150;28;20032;-47
2023/08/08 02:31:32;;;;;;;4.80;1.38;;;12.90;90.90;;;;;;5052378;28;20039;-46
2023/08/08 02:33:59;;;;;;;7.88;1.73;;;12.90;91.10;;;;;;5066043;28;20033;-46
2023/08/08 02:36:26;;;;;;;4.60;1.30;;;12.90;91.00;;;;;;5056189;28;20044;-46
2023/08/08 02:38:58;;;;;;;5.88;1.88;;;12.90;91.10;;;;;;5073601;28;20039;-46
2023/08/08 02:41:24;;;;;;;6.38;1.50;;;12.90;91.20;;;;;;5075448;28;20035;-47
2023/08/08 02:43:50;;;;;;;7.88;1.48;;;12.90;91.00;;;;;;5073793;28;20036;-46
2023/08/08 02:46:17;;;;;;;7.30;2.00;;;13.00;91.10;;;;;;5070380;28;20033;-46
2023/08/08 02:48:43;;;;;;;5.93;1.58;;;12.90;91.00;;;;;;5074038;28;20029;-46
2023/08/08 02:51:10;;;;;;;10.48;2.72;;;12.90;91.10;;;;;;5056895;28;20031;-46
2023/08/08 02:53:40;;;;;;;6.97;1.38;;;12.90;90.90;;;;;;5074306;28;20041;-46
2023/08/08 02:56:07;;;;;;;5.45;1.42;;;12.90;90.60;;;;;;5063135;28;20024;-48
2023/08/08 02:58:37;;;;;;;7.13;1.45;;;12.90;90.70;;;;;;5067449;28;20405;-46
2023/08/08 03:01:03;;;;;;;7.07;1.50;;;12.90;90.60;;;;;;5062274;28;20060;-47
2023/08/08 03:03:30;;;;;;;11.27;2.92;;;12.90;90.50;;;;;;5073429;28;20033;-47
2023/08/08 03:05:59;;;;;;;4.18;1.45;;;12.90;90.40;;;;;;5074557;28;20021;-47
2023/08/08 03:08:27;;;;;;;5.97;1.13;;;12.90;90.40;;;;;;5074341;28;20020;-47
2023/08/08 03:10:59;;;;;;;10.60;1.77;;;12.90;90.30;;;;;;5057811;28;20276;-48
2023/08/08 03:13:25;;;;;;;7.00;1.70;;;12.90;90.60;;;;;;5073845;28;20032;-48
2023/08/08 03:15:56;;;;;;;5.40;1.70;;;12.80;90.50;;;;;;5053381;28;20471;-47
2023/08/08 03:18:26;;;;;;;4.63;1.10;;;12.90;90.50;;;;;;5073648;28;20054;-48
2023/08/08 03:20:53;;;;;;;9.18;1.60;;;12.90;90.40;;;;;;5074985;28;20081;-47
2023/08/08 03:23:19;;;;;;;8.77;1.77;;;12.90;90.40;;;;;;5053341;28;20449;-47
2023/08/08 03:25:46;;;;;;;5.65;1.60;;;12.80;90.30;;;;;;5054832;28;20111;-47
2023/08/08 03:28:13;;;;;;;8.00;2.00;;;12.80;90.40;;;;;;5061437;28;20375;-48
2023/08/08 03:30:42;;;;;;;8.80;1.85;;;12.90;90.40;;;;;;5073165;28;20021;-47
2023/08/08 03:33:09;;;;;;;12.73;1.70;;;12.80;90.30;;;;;;5069230;28;20044;-47
2023/08/08 03:35:38;;;;;;;6.82;1.70;;;12.80;90.40;;;;;;5036734;28;20143;-48
2023/08/08 03:38:05;;;;;;;7.00;1.60;;;12.80;90.50;;;;;;5038887;28;20028;-47
2023/08/08 03:40:32;;;;;;;10.43;3.10;;;12.80;90.60;;;;;;5066213;28;20101;-48
2023/08/08 03:43:02;;;;;;;7.13;1.63;;;12.90;90.80;;;;;;5070947;28;20060;-48
2023/08/08 03:45:31;;;;;;;6.05;2.22;;;12.90;90.60;;;;;;5057130;28;20369;-48
2023/08/08 03:47:58;;;;;;;6.30;1.17;;;12.90;90.60;;;;;;5066328;28;20033;-49
2023/08/08 03:50:24;;;;;;;9.00;2.88;;;12.90;90.90;;;;;;5061511;28;20042;-47
2023/08/08 03:52:50;;;;;;;7.45;1.83;;;12.90;90.70;;;;;;5068216;28;20020;-47
2023/08/08 03:55:17;;;;;;;15.10;2.20;;;12.90;90.60;;;;;;5072962;28;20060;-47
2023/08/08 03:57:44;;;;;;;10.23;2.15;;;12.90;90.50;;;;;;5074238;28;20181;-48
2023/08/08 04:00:11;;;;;;;7.25;1.60;;;13.00;90.20;;;;;;5067614;28;20095;-48
2023/08/08 04:02:43;;;;;;;4.40;1.67;;;13.10;90.00;;;;;;5060264;28;20559;-47
2023/08/08 04:05:10;;;;;;;6.47;1.77;;;13.10;89.90;;;;;;5073169;28;20037;-47
2023/08/08 04:07:36;;;;;;;9.45;2.03;;;13.10;89.80;;;;;;5065886;28;20033;-49
2023/08/08 04:10:03;;;;;;;7.00;1.63;;;13.10;89.90;;;;;;5054628;28;20028;-47
2023/08/08 04:12:29;;;;;;;8.60;1.73;;;13.10;90.00;;;;;;5066685;28;20085;-48
2023/08/08 04:14:56;;;;;;;9.80;2.30;;;13.20;90.10;;;;;;5072588;28;20037;-48
2023/08/08 04:17:22;;;;;;;7.57;1.65;;;13.10;90.20;;;;;;5071024;28;20107;-47
2023/08/08 04:19:50;;;;;;;8.82;2.13;;;13.00;90.40;;;;;;5073378;28;20086;-48
2023/08/08 04:22:18;;;;;;;8.27;1.70;;;13.00;90.50;;;;;;5068935;28;20060;-47
2023/08/08 04:24:45;;;;;;;6.93;1.92;;;13.00;90.40;;;;;;5069756;28;20048;-48
2023/08/08 04:27:12;;;;;;;6.43;1.73;;;13.00;90.30;;;;;;5073630;28;20031;-48
2023/08/08 04:29:39;;;;;;;6.15;1.83;;;12.90;90.20;;;;;;5043850;28;20025;-47
2023/08/08 04:32:08;;;;;;;7.82;1.70;;;13.00;90.30;;;;;;5068102;28;20520;-47
2023/08/08 04:34:37;;;;;;;4.72;1.73;;;12.90;90.20;;;;;;5071950;28;20465;-47
2023/08/08 04:37:04;;;;;;;10.18;2.25;;;12.90;90.10;;;;;;5072469;28;20123;-48
2023/08/08 04:39:30;;;;;;;8.40;1.95;;;12.90;90.10;;;;;;5050941;28;20127;-47
2023/08/08 04:41:57;;;;;;;9.63;1.90;;;13.00;90.00;;;;;;5056331;28;20588;-49
2023/08/08 04:44:23;;;;;;;6.85;2.40;;;13.00;90.20;;;;;;5055515;28;20032;-48
2023/08/08 04:46:50;;;;;;;6.03;1.85;;;13.00;90.10;;;;;;5071955;28;20032;-47
2023/08/08 04:49:17;;;;;;;8.35;2.08;;;13.00;90.10;;;;;;5072147;28;20025;-47
2023/08/08 04:51:44;;;;;;;9.02;2.25;;;13.00;90.10;;;;;;5071640;28;20094;-49
2023/08/08 04:54:10;;;;;;;10.25;2.35;;;13.00;90.20;;;;;;5053720;28;20038;-47
2023/08/08 04:56:37;;;;;;;9.45;1.98;;;13.00;90.20;;;;;;5069886;28;20024;-47
2023/08/08 04:59:06;;;;;;;8.23;2.33;;;13.00;90.00;;;;;;5068640;28;20107;-48
2023/08/08 05:01:34;;;;;;;6.72;2.00;;;13.10;90.20;;;;;;5070855;28;20033;-48
2023/08/08 05:04:01;;;;;;;8.02;2.28;;;13.20;90.20;;;;;;5072087;28;20035;-47
2023/08/08 05:06:27;;;;;;;8.45;2.05;;;13.30;90.00;;;;;;5045101;28;20028;-47
2023/08/08 05:08:54;;;;;;;8.35;1.95;;;13.30;90.10;;;;;;5053958;28;20035;-48
2023/08/08 05:11:21;;;;;;;10.05;1.88;;;13.40;90.00;;;;;;5056325;28;20029;-47
2023/08/08 05:13:47;;;;;;;8.30;1.83;;;13.40;90.10;;;;;;5058554;28;20112;-47
2023/08/08 05:16:16;;;;;;;10.05;1.92;;;13.50;90.00;;;;;;5072335;28;20045;-50
2023/08/08 05:18:45;;;;;;;11.00;2.50;;;13.50;89.80;;;;;;5071344;28;20036;-47
2023/08/08 05:21:12;;;;;;;8.05;1.92;;;13.60;89.70;;;;;;5072728;28;20035;-48
2023/08/08 05:23:38;;;;;;;5.78;1.73;;;13.60;89.90;;;;;;5067642;28;20044;-49
2023/08/08 05:26:05;;;;;;;5.22;1.42;;;13.60;89.70;;;;;;5072530;28;20024;-49
2023/08/08 05:28:32;;;;;;;5.55;1.30;;;13.70;89.40;;;;;;5065363;28;20032;-47
2023/08/08 05:30:59;;;;;;;4.03;1.45;;;13.70;88.90;;;;;;5058501;28;20020;-47
2023/08/08 05:33:26;;;;;;;5.05;1.20;;;13.70;88.60;;;;;;5070791;28;20028;-48
2023/08/08 05:35:53;;;;;;;4.88;1.70;;;13.70;88.60;;;;;;5053846;28;20381;-48
2023/08/08 05:38:20;;;;;;;6.05;2.17;;;13.70;89.00;;;;;;5071273;28;20444;-50
2023/08/08 05:40:46;;;;;;;6.93;1.50;;;13.80;89.30;;;;;;5068345;28;20457;-49
2023/08/08 05:43:17;;;;;;;4.28;1.42;;;14.00;89.50;;;;;;5046328;28;20033;-47
2023/08/08 05:45:44;;;;;;;7.00;2.05;;;14.20;89.40;;;;;;5067148;28;20044;-46
2023/08/08 05:48:12;;;;;;;6.75;2.03;;;14.40;89.50;;;;;;5062949;28;20034;-47
2023/08/08 05:50:39;;;;;;;9.13;3.10;;;14.40;89.30;;;;;;5072011;28;20032;-47
2023/08/08 05:53:09;;;;;;;4.03;1.90;;;14.40;89.40;;;;;;5069657;28;20043;-46
2023/08/08 05:55:36;;;;;;;6.50;2.40;;;14.30;89.50;;;;;;5062185;28;20083;-46
2023/08/08 05:58:04;;;;;;;8.52;2.47;;;14.20;89.80;;;;;;5060590;28;20103;-50
2023/08/08 06:00:31;;;;;;;8.10;2.22;;;14.20;90.10;;;;;;5062056;28;20098;-47
2023/08/08 06:02:58;;;;;;;8.15;2.20;;;14.00;90.10;;;;;;5047654;28;20040;-48
2023/08/08 06:05:25;;;;;;;7.45;1.83;;;14.00;90.30;;;;;;5071134;28;20087;-47
2023/08/08 06:07:52;;;;;;;14.63;2.78;;;13.90;90.30;;;;;;5073046;28;20036;-48
2023/08/08 06:10:19;;;;;;;7.13;2.33;;;13.90;90.60;;;;;;5060025;28;20028;-49
2023/08/08 06:12:45;;;;;;;7.70;1.90;;;13.90;90.80;;;;;;5041784;28;20029;-47
2023/08/08 06:15:12;;;;;;;8.35;3.15;;;14.00;91.10;;;;;;5038683;28;20021;-47
2023/08/08 06:17:39;;;;;;;4.38;2.35;;;14.20;91.30;;;;;;5075269;28;20086;-47
2023/08/08 06:20:07;;;;;;;6.80;3.35;;;14.30;91.10;;;;;;5070815;28;20029;-48
2023/08/08 06:22:37;;;;;;;8.75;2.58;;;14.40;91.10;;;;;;5074509;28;20079;-46
2023/08/08 06:25:04;;;;;;;9.82;2.42;;;14.40;91.00;;;;;;5073790;28;20426;-49
2023/08/08 06:27:31;;;;;;;6.03;2.15;;;14.40;91.00;;;;;;5075123;28;20106;-48
2023/08/08 06:29:58;;;;;;;5.32;2.05;;;14.30;91.00;;;;;;5056993;28;20028;-48
2023/08/08 06:32:27;;;;;;;6.30;2.03;;;14.30;91.50;;;;;;5065812;28;20385;-47
2023/08/08 06:34:53;;;;;;;7.35;1.45;;;14.20;91.80;;;;;;5059130;28;20446;-48
2023/08/08 06:37:19;;;;;;;4.78;1.60;;;14.00;91.00;;;;;;5060956;28;20355;-48
2023/08/08 06:39:49;;;;;;;3.35;1.50;;;13.90;90.80;;;;;;5073562;28;20032;-48
2023/08/08 06:42:17;;;;;;;6.75;2.10;;;13.80;91.10;;;;;;5038612;28;20652;-47
2023/08/08 06:44:44;;;;;;;7.30;2.38;;;13.80;91.20;;;;;;5056970;28;20059;-47
2023/08/08 06:47:11;;;;;;;5.70;1.58;;;13.90;91.60;;;;;;5040678;28;20055;-47
2023/08/08 06:49:41;;;;;;;9.73;2.30;;;14.00;91.60;;;;;;5055224;28;20032;-47
2023/08/08 06:52:07;;;;;;;;;;;14.10;91.40;;;;;;5055789;28;20334;-49
2023/08/08 06:54:34;;;;;;;4.20;1.55;;;13.90;90.60;;;;;;5074159;28;19912;-50
2023/08/08 06:57:04;;;;;;;3.20;1.27;;;13.90;90.20;;;;;;5064618;28;20043;-47
2023/08/08 06:59:33;;;;;;;2.90;1.40;;;14.00;90.10;;;;;;5075306;28;20020;-48
2023/08/08 07:02:00;;;;;;;2.90;1.40;;;13.90;89.50;;;;;;5041205;28;20056;-50
2023/08/08 07:04:28;;;;;;;4.78;1.48;;;13.90;89.60;;;;;;5058553;28;20349;-47
2023/08/08 07:06:54;;;;;;;6.18;1.33;;;13.80;89.20;;;;;;5061865;28;20059;-48
2023/08/08 07:09:22;;;;;;;11.75;1.92;;;13.80;88.80;;;;;;5059836;28;20025;-48
2023/08/08 07:11:48;;;;;;;6.13;1.50;;;13.70;89.20;;;;;;5061785;28;20079;-48
2023/08/08 07:14:15;;;;;;;5.45;1.60;;;13.50;89.70;;;;;;5047531;28;20477;-48
2023/08/08 07:16:40;;;;;;;4.35;1.40;;;13.40;90.10;;;;;;5065290;28;20689;-47
2023/08/08 07:19:11;;;;;;;10.40;1.83;;;13.40;90.70;;;;;;5054559;28;20115;-47
2023/08/08 07:21:38;;;;;;;7.15;1.95;;;13.50;91.00;;;;;;5063595;28;20032;-47
2023/08/08 07:24:06;;;;;;;9.68;2.63;;;13.70;91.00;;;;;;5067093;28;20047;-47
2023/08/08 07:26:33;;;;;;;11.43;1.88;;;13.70;91.00;;;;;;5071687;28;20036;-47
2023/08/08 07:28:59;;;;;;;3.92;1.13;;;13.80;90.90;;;;;;5071788;28;20035;-47
2023/08/08 07:31:26;;;;;;;7.20;2.03;;;13.90;91.10;;;;;;5053267;28;20036;-47
2023/08/08 07:33:53;;;;;;;6.57;1.55;;;14.10;90.90;;;;;;5060888;28;20036;-47
2023/08/08 07:36:19;;;;;;;8.70;1.65;;;14.40;91.40;;;;;;5063938;28;20417;-48
2023/08/08 07:38:46;;;;;;;8.45;2.17;;;14.60;91.00;;;;;;5056980;28;20570;-49
2023/08/08 07:41:16;;;;;;;8.93;1.65;;;14.70;90.00;;;;;;5061847;28;20372;-50
2023/08/08 07:43:41;;;;;;;7.57;1.58;;;14.70;89.30;;;;;;5061993;28;20028;-48
2023/08/08 07:46:10;;;;;;;8.02;2.63;;;14.80;88.70;;;;;;5058638;28;20029;-50
2023/08/08 07:48:36;;;;;;;9.23;1.88;;;14.80;88.70;;;;;;5062649;28;20058;-49
2023/08/08 07:51:03;;;;;;;10.18;2.50;;;14.80;88.70;;;;;;5065656;28;20024;-49
2023/08/08 07:53:34;;;;;;;8.15;1.67;;;14.90;88.70;;;;;;5063684;28;20028;-48
2023/08/08 07:56:00;;;;;;;5.65;1.45;;;15.20;88.90;;;;;;5045447;28;20028;-50
2023/08/08 07:58:29;;;;;;;9.77;2.00;;;14.90;87.70;;;;;;5065423;28;20025;-51
2023/08/08 08:00:56;;;;;;;7.05;1.63;;;15.00;88.30;;;;;;5044914;28;20523;-49
2023/08/08 08:03:23;;;;;;;5.22;1.48;;;15.10;88.60;;;;;;5066856;28;20047;-49
2023/08/08 08:05:50;;;;;;;4.82;1.40;;;15.20;88.30;;;;;;5052824;28;20070;-51
2023/08/08 08:08:17;;;;;;;9.18;1.75;;;15.40;88.60;;;;;;5063225;28;20082;-52
2023/08/08 08:10:45;;;;;;;7.50;1.80;;;15.40;87.50;;;;;;5062660;28;20855;-52
2023/08/08 08:13:12;;;;;;;6.75;1.58;;;15.50;87.70;;;;;;5071585;28;20032;-49
2023/08/08 08:15:38;;;;;;;5.55;1.90;;;15.60;86.80;;;;;;5070381;28;20442;-49
2023/08/08 08:18:04;;;;;;;5.13;1.23;;;15.70;86.60;;;;;;5073867;28;20028;-50
2023/08/08 08:20:31;;;;;;;4.45;1.17;;;15.80;86.30;;;;;;5073239;28;20357;-50
2023/08/08 08:22:57;;;;;;;6.00;1.48;;;15.90;85.80;;;;;;5054965;28;20089;-50
2023/08/08 08:25:24;;;;;;;10.02;1.65;;;15.90;86.10;;;;;;5048577;28;20029;-51
2023/08/08 08:27:49;;;;;;;6.15;1.73;;;15.70;85.90;;;;;;5035780;28;20029;-51
2023/08/08 08:30:15;;;;;;;5.78;1.67;;;15.60;86.10;;;;;;5053571;28;20040;-48
2023/08/08 08:32:43;;;;;;;7.25;1.98;;;15.50;86.60;;;;;;5066197;28;20020;-46
2023/08/08 08:35:09;;;;;;;9.75;1.92;;;15.40;87.00;;;;;;5071319;28;20067;-48
2023/08/08 08:37:38;;;;;;;8.60;2.33;;;15.00;87.90;;;;;;5066625;28;20028;-50
2023/08/08 08:40:06;;;;;;;4.47;1.80;;;14.70;87.80;;;;;;5057497;28;20033;-47
2023/08/08 08:42:34;;;;;;;3.05;1.20;;;14.50;87.40;;;;;;5058837;28;20039;-47
2023/08/08 08:45:03;;;;;;;2.67;0.98;;;14.50;87.70;;;;;;5055144;28;20037;-47
2023/08/08 08:47:39;;;;;;;5.38;1.42;;;14.40;88.00;;;;;;5071953;28;20021;-47
2023/08/08 08:50:07;;;;;;;6.50;2.30;;;14.40;87.70;;;;;;5063133;28;20033;-51
2023/08/08 08:52:34;;;;;;;4.72;1.58;;;14.90;88.70;;;;;;5052849;28;20053;-49
2023/08/08 08:55:04;;;;;;;6.22;1.35;;;15.30;87.80;;;;;;5062420;28;20029;-50
2023/08/08 08:57:30;;;;;;;6.38;1.63;;;15.40;87.00;;;;;;5054147;28;20089;-51
2023/08/08 08:59:58;;;;;;;14.85;2.58;;;16.00;87.80;;;;;;5071490;28;20048;-51
2023/08/08 09:02:26;;;;;;;7.05;2.08;;;16.60;86.60;;;;;;5050537;28;20037;-51
2023/08/08 09:04:52;;;;;;;6.75;1.50;;;17.10;86.20;;;;;;5071041;28;20048;-50
2023/08/08 09:07:22;;;;;;;7.70;2.50;;;17.70;85.90;;;;;;5072644;28;20056;-52
2023/08/08 09:09:51;;;;;;;6.90;1.80;;;17.70;83.00;;;;;;5065199;28;20141;-54
2023/08/08 09:12:19;;;;;;;9.13;1.85;;;17.40;83.70;;;;;;5063943;28;20107;-51
2023/08/08 09:14:46;;;;;;;8.43;1.85;;;16.90;83.40;;;;;;5070048;28;20528;-52
2023/08/08 09:17:13;;;;;;;10.15;3.20;;;16.40;85.20;;;;;;5068781;28;20378;-54
2023/08/08 09:19:45;;;;;;;15.25;3.47;;;16.20;85.00;;;;;;5072564;28;20029;-54
2023/08/08 09:22:15;;;;;;;13.57;3.33;;;15.70;84.30;;;;;;5068122;28;20059;-51
2023/08/08 09:24:47;;;;;;;13.75;3.17;;;15.30;85.70;;;;;;5067961;28;20124;-51
2023/08/08 09:27:14;;;;;;;19.08;3.47;;;15.10;86.70;;;;;;5067418;28;20402;-50
2023/08/08 09:29:42;;;;;;;17.92;4.25;;;15.10;87.40;;;;;;5071293;28;20028;-50
2023/08/08 09:32:09;;;;;;;22.67;5.15;;;15.40;88.60;;;;;;5069887;28;20024;-50
2023/08/08 09:34:36;;;;;;;6.22;1.80;;;16.20;89.70;;;;;;5060625;28;20430;-49
2023/08/08 09:37:06;;;;;;;6.40;1.85;;;16.50;85.10;;;;;;5055223;28;20048;-53
2023/08/08 09:39:33;;;;;;;5.70;1.70;;;17.00;82.80;;;;;;5066073;28;20059;-53
2023/08/08 09:42:02;;;;;;;8.00;1.25;;;17.40;82.10;;;;;;5063940;28;20090;-53
2023/08/08 09:44:31;;;;;;;7.40;1.30;;;17.30;80.70;;;;;;5047574;28;20036;-54
2023/08/08 09:47:00;;;;;;;8.48;1.75;;;17.30;78.70;;;;;;5064375;28;20021;-50
2023/08/08 09:49:28;;;;;;;8.27;1.50;;;17.40;79.50;;;;;;5065072;28;20032;-51
2023/08/08 09:51:55;;;;;;;5.43;1.58;;;17.20;79.10;;;;;;5062395;28;20031;-52
2023/08/08 09:54:24;;;;;;;9.55;1.73;;;17.10;80.10;;;;;;5054701;28;20036;-49
2023/08/08 09:56:51;;;;;;;7.13;1.33;;;17.00;80.10;;;;;;5044792;28;20083;-48
2023/08/08 09:59:19;;;;;;;6.43;1.55;;;16.90;81.10;;;;;;5053114;28;20043;-53
2023/08/08 10:01:47;;;;;;;6.53;1.50;;;16.90;80.70;;;;;;5074122;28;20041;-48
2023/08/08 10:04:15;;;;;;;10.32;2.75;;;17.10;81.20;;;;;;5052503;28;20029;-48
2023/08/08 10:06:41;;;;;;;8.07;1.67;;;17.50;80.00;;;;;;5070621;28;20025;-47
2023/08/08 10:09:08;;;;;;;15.82;3.00;;;17.50;80.20;;;;;;5071091;28;20352;-48
2023/08/08 10:11:39;;;;;;;6.65;1.42;;;17.00;81.80;;;;;;5068544;28;20112;-46
2023/08/08 10:14:07;;;;;;;7.07;1.33;;;16.50;83.10;;;;;;5071124;28;20090;-50
2023/08/08 10:16:33;;;;;;;6.50;1.80;;;16.00;82.50;;;;;;5069360;28;20059;-48
2023/08/08 10:19:03;;;;;;;5.65;1.63;;;15.60;82.70;;;;;;5070243;28;20048;-48
2023/08/08 10:21:36;;;;;;;6.57;1.80;;;15.50;83.90;;;;;;5068098;28;20112;-47
2023/08/08 10:24:09;;;;;;;7.25;2.13;;;15.80;84.50;;;;;;5067748;28;20512;-48
2023/08/08 10:26:58;;;;;;;6.50;1.88;;;16.00;84.20;;;;;;5064057;28;20460;-51
2023/08/08 10:29:29;;;;;;;6.63;1.92;;;16.40;84.00;;;;;;5061824;28;20025;-48
2023/08/08 10:32:03;;;;;;;7.88;1.55;;;16.90;82.40;;;;;;5064178;28;20059;-50
2023/08/08 10:34:49;;;;;;;3.97;1.48;;;16.70;78.90;;;;;;5041706;28;20044;-48
2023/08/08 10:37:17;;;;;;;3.58;1.10;;;16.40;79.20;;;;;;5059229;28;20116;-48
2023/08/08 10:39:58;;;;;;;3.95;1.00;;;16.00;79.80;;;;;;5062851;28;20104;-48
2023/08/08 10:42:27;;;;;;;5.63;1.88;;;15.90;79.60;;;;;;5067188;28;20047;-49
2023/08/08 10:44:59;;;;;;;4.47;1.17;;;15.90;81.30;;;;;;5058649;28;20028;-47
2023/08/08 10:47:30;;;;;;;5.05;1.63;;;15.80;81.40;;;;;;5048966;28;20286;-49
2023/08/08 10:50:13;;;;;;;3.45;1.35;;;15.90;81.70;;;;;;5063415;28;20071;-48
2023/08/08 10:53:01;;;;;;;11.82;1.75;;;15.60;82.40;;;;;;5061978;28;20052;-45
2023/08/08 10:55:37;;;;;;;9.85;2.70;;;15.30;84.30;;;;;;5071266;28;20426;-52
2023/08/08 10:58:21;;;;;;;7.07;1.92;;;15.20;86.30;;;;;;5073035;28;20032;-48
2023/08/08 11:00:52;;;;;;;11.70;2.30;;;14.60;87.20;;;;;;5070351;28;20111;-48
2023/08/08 11:03:23;;;;;;;5.35;1.80;;;14.50;88.20;;;;;;5071937;28;20111;-47
2023/08/08 11:05:50;;;;;;;12.10;2.63;;;14.90;89.80;;;;;;5037929;28;20025;-48
2023/08/08 11:08:17;;;;;;;11.07;2.70;;;15.50;90.90;;;;;;5062915;28;20078;-50
2023/08/08 11:10:44;;;;;;;11.20;2.97;;;15.90;90.50;;;;;;5075199;28;20024;-50
2023/08/08 11:13:11;;;;;;;10.43;3.40;;;16.50;89.50;;;;;;5064424;28;20445;-54
2023/08/08 11:15:38;;;;;;;12.90;2.50;;;16.80;88.60;;;;;;5069676;28;20052;-52
2023/08/08 11:18:08;;;;;;;10.75;3.28;;;17.10;87.50;;;;;;5055347;28;20063;-54
2023/08/08 11:20:38;;;;;;;;;;;17.10;84.60;;;;;;5075074;28;20469;-50
2023/08/08 11:23:09;;;;;;;9.18;2.10;;;16.90;84.00;;;;;;5070931;28;19966;-48
2023/08/08 11:25:39;;;;;;;10.45;2.38;;;16.50;83.40;;;;;;5074865;28;20059;-48
2023/08/08 11:28:06;;;;;;;10.30;2.63;;;16.80;83.70;;;;;;5039254;28;20028;-51
2023/08/08 11:30:37;;;;;;;9.52;2.55;;;16.50;83.70;;;;;;5062408;28;20034;-48
2023/08/08 11:33:04;;;;;;;7.93;2.13;;;16.30;84.50;;;;;;5056417;28;20033;-48
2023/08/08 11:35:34;;;;;;;11.15;2.22;;;16.40;85.10;;;;;;5036968;28;20041;-49
2023/08/08 11:38:02;;;;;;;7.22;1.98;;;16.20;84.70;;;;;;5064691;28;20028;-49
2023/08/08 11:40:32;;;;;;;8.55;2.25;;;16.00;84.00;;;;;;5063786;28;20583;-48
2023/08/08 11:42:59;;;;;;;11.07;2.85;;;16.00;84.30;;;;;;5054341;28;20497;-48
2023/08/08 11:45:26;;;;;;;10.80;3.17;;;16.00;84.50;;;;;;5039131;28;20024;-52
2023/08/08 11:47:56;;;;;;;11.20;2.40;;;16.10;84.40;;;;;;5055794;28;20037;-49
2023/08/08 11:50:24;;;;;;;8.35;2.90;;;16.20;85.10;;;;;;5074116;28;20016;-49
2023/08/08 11:52:53;;;;;;;7.43;2.60;;;16.50;86.40;;;;;;5029336;28;20029;-48
2023/08/08 11:55:23;;;;;;;10.70;2.67;;;16.90;84.30;;;;;;5072183;28;20024;-49
2023/08/08 11:57:53;;;;;;;9.30;2.58;;;17.40;84.60;;;;;;5070454;28;20442;-50
2023/08/08 12:00:20;;;;;;;9.77;2.42;;;17.30;81.20;;;;;;5070974;28;20024;-50
2023/08/08 12:02:48;;;;;;;6.53;2.05;;;17.40;78.50;;;;;;5058503;28;20067;-47
2023/08/08 12:05:22;;;;;;;10.63;2.67;;;17.00;78.00;;;;;;5063235;28;20135;-49
2023/08/08 12:07:50;;;;;;;15.95;2.95;;;17.20;80.10;;;;;;5049950;28;20123;-48
2023/08/08 12:10:24;;;;;;;9.98;2.38;;;17.40;78.20;;;;;;5070185;28;20028;-50
2023/08/08 12:12:59;;;;;;;13.48;3.28;;;17.50;77.80;;;;;;5067292;28;20017;-48
2023/08/08 12:15:35;;;;;;;8.48;2.67;;;17.50;77.20;;;;;;5068876;28;20111;-50
2023/08/08 12:18:05;;;;;;;9.88;2.58;;;17.20;76.10;;;;;;5054440;28;20025;-49
2023/08/08 12:20:32;;;;;;;8.00;2.25;;;17.30;77.00;;;;;;5072301;28;20028;-47
2023/08/08 12:22:59;;;;;;;11.50;2.72;;;17.30;75.30;;;;;;5063287;28;20043;-50
2023/08/08 12:25:25;;;;;;;11.23;3.10;;;17.20;75.10;;;;;;5070725;28;20420;-47
2023/08/08 12:27:55;;;;;;;11.68;2.50;;;17.60;77.10;;;;;;5069791;28;20112;-47
2023/08/08 12:30:22;;;;;;;;;;;17.60;74.70;;;;;;5051494;28;20064;-47
2023/08/08 12:32:49;;;;;;;7.57;2.83;;;17.30;75.80;;;;;;5067868;28;19912;-44
2023/08/08 12:35:16;;;;;;;12.00;3.80;;;16.60;82.60;;;;;;5055382;28;20052;-46
2023/08/08 12:37:43;;;;;;;18.02;4.93;;;15.90;85.50;;;;;;5072013;28;20108;-45
2023/08/08 12:40:09;;;;;;;18.75;4.55;;;15.60;87.00;;;;;;5071591;28;20028;-45
2023/08/08 12:42:36;;;;;;;18.80;4.20;;;15.50;87.30;;;;;;5068585;28;20025;-48
2023/08/08 12:45:03;;;;;;;12.82;3.28;;;15.70;88.90;;;;;;5030756;28;20032;-46
2023/08/08 12:47:29;;;;;;;11.68;3.20;;;16.00;88.30;;;;;;5066959;28;20445;-47
2023/08/08 12:49:55;;;;;;;9.18;3.03;;;16.10;87.30;;;;;;5071735;28;20047;-47